createdAt,value
2018-05-21T10:15:35.628Z,39.36
2018-05-21T10:16:35.619Z,40.03
2018-05-21T10:18:28.814Z,39.55
2018-05-21T10:19:28.842Z,39.06
2018-05-21T10:21:22.023Z,37.82
2018-05-21T10:22:22.042Z,38.43
2018-05-21T10:24:15.428Z,37.94
2018-05-21T10:25:15.449Z,37.77
2018-05-21T10:27:08.652Z,37.32
2018-05-21T10:28:08.674Z,37.24
2018-05-21T10:30:01.848Z,37.03
2018-05-21T10:31:01.894Z,36.54
2018-05-21T10:33:12.431Z,37.59
2018-05-21T10:34:12.457Z,37.19
2018-05-21T10:36:05.661Z,37.30
2018-05-21T10:37:05.711Z,37.79
2018-05-21T10:38:58.918Z,34.99
2018-05-21T10:39:58.954Z,36.00
2018-05-21T10:41:52.187Z,34.69
2018-05-21T10:42:52.219Z,33.83
2018-05-21T10:44:45.464Z,33.36
2018-05-21T10:45:45.501Z,32.55
2018-05-21T10:47:38.707Z,33.84
2018-05-21T10:48:38.728Z,34.43
2018-05-21T10:50:46.740Z,34.72
2018-05-21T10:51:46.344Z,34.62
2018-05-21T10:53:39.524Z,34.51
2018-05-21T10:54:39.545Z,35.91
2018-05-21T10:56:32.723Z,36.98
2018-05-21T10:57:32.775Z,36.32
2018-05-21T10:59:26.026Z,37.13
2018-05-21T11:00:26.082Z,35.78
2018-05-21T11:02:19.256Z,34.66
2018-05-21T11:03:19.410Z,34.67
2018-05-21T11:05:12.593Z,36.02
2018-05-21T11:06:12.614Z,36.99
2018-05-21T11:08:05.780Z,36.88
2018-05-21T11:09:05.796Z,38.25
2018-05-21T11:10:59.036Z,36.82
2018-05-21T11:11:59.061Z,39.18
2018-05-21T11:13:52.451Z,36.97
2018-05-21T11:14:52.344Z,36.10
2018-05-21T11:16:45.586Z,36.27
2018-05-21T11:17:45.597Z,38.23
2018-05-21T11:19:38.839Z,36.19
2018-05-21T11:20:38.843Z,35.69
2018-05-21T11:21:38.924Z,34.80
2018-05-21T11:22:38.955Z,36.04
2018-05-21T11:23:39.007Z,36.80
2018-05-21T11:24:39.056Z,36.10
2018-05-21T11:25:39.052Z,37.07
2018-05-21T11:26:39.061Z,36.18
2018-05-21T11:27:39.097Z,36.76
2018-05-21T11:28:39.141Z,36.26
2018-05-21T11:29:39.157Z,37.32
2018-05-21T11:30:39.255Z,38.00
2018-05-21T11:31:39.315Z,37.81
2018-05-21T11:32:39.273Z,37.32
2018-05-21T11:33:39.301Z,37.23
2018-05-21T11:34:39.341Z,37.42
2018-05-21T11:35:39.363Z,37.21
2018-05-21T11:36:39.393Z,37.60
2018-05-21T11:37:39.432Z,37.40
2018-05-21T11:38:39.467Z,37.12
2018-05-21T11:39:39.504Z,37.50
2018-05-21T11:40:39.539Z,38.18
2018-05-21T11:41:39.578Z,37.23
2018-05-21T11:42:39.604Z,37.42
2018-05-21T11:43:39.629Z,37.30
2018-05-21T11:44:39.691Z,38.28
2018-05-21T11:45:39.695Z,37.30
2018-05-21T11:46:39.751Z,38.46
2018-05-21T11:47:39.760Z,39.04
2018-05-21T11:48:39.792Z,37.19
2018-05-21T11:49:39.833Z,37.67
2018-05-21T11:50:39.935Z,37.77
2018-05-21T11:51:39.997Z,37.17
2018-05-21T11:52:39.935Z,37.77
2018-05-21T11:53:40.022Z,38.35
2018-05-21T11:54:39.999Z,36.98
2018-05-21T11:55:40.016Z,36.98
2018-05-21T11:56:40.051Z,37.46
2018-05-21T11:57:40.086Z,37.08
2018-05-21T11:58:40.126Z,36.79
2018-05-21T11:59:40.141Z,36.69
2018-05-21T12:00:40.178Z,37.08
2018-05-21T12:01:40.238Z,36.69
2018-05-21T12:02:40.272Z,37.27
2018-05-21T12:03:40.314Z,37.17
2018-05-21T12:04:40.308Z,36.88
2018-05-21T12:05:40.335Z,37.17
2018-05-21T12:06:40.366Z,37.46
2018-05-21T12:07:40.418Z,37.37
2018-05-21T12:08:40.442Z,37.27
2018-05-21T12:09:40.467Z,37.27
2018-05-21T12:10:40.497Z,37.27
2018-05-21T12:11:40.599Z,35.84
2018-05-21T12:12:40.652Z,35.94
2018-05-21T12:13:40.590Z,37.48
2018-05-21T12:14:40.626Z,37.08
2018-05-21T12:15:40.666Z,37.17
2018-05-21T12:16:40.695Z,37.17
2018-05-21T12:17:40.729Z,37.85
2018-05-21T12:18:40.771Z,38.91
2018-05-21T12:19:40.796Z,37.56
2018-05-21T12:20:40.815Z,38.71
2018-05-21T12:21:40.872Z,37.46
2018-05-21T12:22:40.881Z,36.88
2018-05-21T12:23:40.905Z,37.27
2018-05-21T12:24:40.950Z,38.23
2018-05-21T12:25:40.965Z,37.85
2018-05-21T12:26:41.014Z,37.65
2018-05-21T12:27:41.033Z,36.98
2018-05-21T12:28:41.183Z,36.67
2018-05-21T12:29:41.107Z,36.69
2018-05-21T12:30:41.147Z,37.08
2018-05-21T12:31:41.161Z,36.98
2018-05-21T12:32:41.228Z,36.21
2018-05-21T12:33:41.260Z,36.40
2018-05-21T12:34:41.249Z,36.69
2018-05-21T12:35:41.283Z,37.65
2018-05-21T12:36:41.328Z,37.56
2018-05-21T12:37:41.363Z,37.08
2018-05-21T12:38:41.380Z,37.17
2018-05-21T12:39:41.407Z,37.08
2018-05-21T12:40:41.578Z,36.98
2018-05-21T12:41:41.532Z,36.98
2018-05-21T12:42:41.514Z,37.08
2018-05-21T12:43:41.548Z,38.33
2018-05-21T12:44:41.559Z,38.04
2018-05-21T12:45:41.696Z,38.33
2018-05-21T12:46:41.654Z,36.59
2018-05-21T12:47:41.675Z,36.87
2018-05-21T12:48:41.682Z,37.17
2018-05-21T12:49:41.728Z,37.08
2018-05-21T12:50:41.743Z,37.27
2018-05-21T12:51:41.773Z,37.65
2018-05-21T12:52:41.811Z,37.65
2018-05-21T12:53:41.842Z,37.85
2018-05-21T12:54:41.910Z,37.17
2018-05-21T12:55:41.905Z,37.15
2018-05-21T12:56:41.947Z,37.37
2018-05-21T12:57:41.984Z,37.37
2018-05-21T12:58:41.990Z,36.96
2018-05-21T12:59:42.028Z,37.83
2018-05-21T13:00:42.059Z,36.67
2018-05-21T13:01:42.088Z,37.15
2018-05-21T13:02:42.176Z,37.35
2018-05-21T13:03:42.150Z,38.14
2018-05-21T13:04:42.173Z,36.87
2018-05-21T13:05:42.224Z,35.63
2018-05-21T13:06:42.258Z,36.09
2018-05-21T13:07:42.269Z,35.61
2018-05-21T13:08:42.304Z,34.55
2018-05-21T13:09:42.344Z,35.61
2018-05-21T13:10:42.359Z,34.56
2018-05-21T13:11:42.399Z,34.18
2018-05-21T13:12:42.438Z,35.63
2018-05-21T13:13:42.458Z,37.25
2018-05-21T13:14:42.490Z,36.98
2018-05-21T13:15:42.513Z,36.29
2018-05-21T13:16:42.565Z,37.06
2018-05-21T13:17:42.582Z,37.25
2018-05-21T13:18:42.622Z,36.96
2018-05-21T13:19:42.658Z,36.29
2018-05-21T13:20:42.676Z,36.29
2018-05-21T13:21:42.703Z,35.92
2018-05-21T13:22:42.732Z,35.61
2018-05-21T13:23:42.770Z,35.61
2018-05-21T13:24:42.798Z,35.71
2018-05-21T13:25:42.831Z,36.29
2018-05-21T13:26:42.863Z,35.42
2018-05-21T13:27:42.889Z,35.52
2018-05-21T13:28:42.916Z,34.84
2018-05-21T13:29:42.961Z,34.94
2018-05-21T13:30:42.977Z,35.71
2018-05-21T13:31:43.093Z,35.90
2018-05-21T13:32:43.041Z,35.80
2018-05-21T13:33:43.067Z,35.61
2018-05-21T13:34:43.171Z,35.42
2018-05-21T13:35:43.125Z,35.42
2018-05-21T13:36:43.168Z,35.80
2018-05-21T13:37:43.197Z,35.80
2018-05-21T13:38:43.237Z,34.84
2018-05-21T13:39:43.264Z,34.26
2018-05-21T13:40:43.286Z,35.80
2018-05-21T13:41:43.404Z,35.90
2018-05-21T13:42:43.342Z,36.96
2018-05-21T13:43:43.375Z,36.09
2018-05-21T13:44:43.413Z,35.71
2018-05-21T13:45:43.449Z,36.09
2018-05-21T13:46:43.471Z,36.38
2018-05-21T13:47:43.501Z,36.29
2018-05-21T13:48:43.532Z,36.87
2018-05-21T13:49:43.565Z,37.63
2018-05-21T13:50:43.613Z,37.45
2018-05-21T13:51:43.630Z,37.63
2018-05-21T13:52:43.661Z,37.73
2018-05-21T13:53:43.681Z,37.93
2018-05-21T13:54:43.713Z,37.95
2018-05-21T13:55:43.745Z,37.65
2018-05-21T13:56:43.796Z,38.23
2018-05-21T13:57:43.802Z,37.65
2018-05-21T13:58:43.847Z,38.31
2018-05-21T13:59:43.874Z,37.46
2018-05-21T14:00:43.909Z,37.17
2018-05-21T14:01:43.937Z,36.87
2018-05-21T14:02:43.960Z,36.57
2018-05-21T14:03:44.004Z,36.96
2018-05-21T14:04:44.044Z,36.88
2018-05-21T14:05:44.114Z,37.08
2018-05-21T14:06:44.078Z,36.96
2018-05-21T14:07:45.086Z,37.35
2018-05-21T14:08:44.136Z,37.73
2018-05-21T14:09:44.176Z,37.35
2018-05-21T14:10:44.200Z,36.77
2018-05-21T14:11:44.232Z,36.38
2018-05-21T14:12:44.260Z,36.38
2018-05-21T14:13:44.309Z,35.80
2018-05-21T14:14:44.334Z,36.38
2018-05-21T14:15:44.367Z,36.96
2018-05-21T14:16:44.411Z,36.29
2018-05-21T14:17:44.413Z,36.57
2018-05-21T14:18:44.463Z,36.67
2018-05-21T14:19:44.471Z,36.67
2018-05-21T14:20:44.502Z,36.96
2018-05-21T14:21:44.538Z,36.67
2018-05-21T14:22:44.568Z,38.12
2018-05-21T14:23:44.597Z,36.88
2018-05-21T14:24:44.625Z,37.45
2018-05-21T14:25:44.656Z,37.45
2018-05-21T14:26:44.690Z,37.06
2018-05-21T14:27:44.737Z,37.06
2018-05-21T14:28:44.755Z,37.73
2018-05-21T14:29:44.878Z,38.70
2018-05-21T14:30:44.809Z,38.62
2018-05-21T14:31:44.873Z,37.35
2018-05-21T14:32:44.938Z,37.15
2018-05-21T14:33:44.932Z,37.15
2018-05-21T14:34:44.942Z,37.15
2018-05-21T14:35:44.998Z,37.15
2018-05-21T14:36:45.010Z,37.06
2018-05-21T14:37:45.025Z,36.96
2018-05-21T14:38:45.051Z,37.15
2018-05-21T14:39:45.082Z,37.25
2018-05-21T14:40:45.118Z,37.63
2018-05-21T14:41:45.141Z,36.96
2018-05-21T14:42:45.176Z,37.06
2018-05-21T14:43:45.202Z,37.15
2018-05-21T14:44:45.242Z,37.15
2018-05-21T14:45:45.264Z,36.67
2018-05-21T14:46:45.305Z,36.77
2018-05-21T14:47:45.335Z,36.87
2018-05-21T14:48:45.364Z,36.96
2018-05-21T14:49:45.405Z,37.25
2018-05-21T14:50:45.424Z,37.15
2018-05-21T14:51:45.467Z,37.63
2018-05-21T14:52:45.475Z,37.06
2018-05-21T14:53:45.507Z,37.54
2018-05-21T14:54:45.543Z,37.73
2018-05-21T14:55:45.569Z,38.12
2018-05-21T14:56:45.597Z,37.93
2018-05-21T14:57:45.645Z,37.35
2018-05-21T14:58:45.667Z,37.25
2018-05-21T14:59:45.693Z,37.15
2018-05-21T15:00:45.718Z,36.67
2018-05-21T15:01:45.748Z,35.61
2018-05-21T15:02:45.788Z,36.29
2018-05-21T15:03:45.814Z,36.38
2018-05-21T15:04:45.858Z,36.29
2018-05-21T15:05:45.890Z,36.29
2018-05-21T15:06:45.906Z,36.48
2018-05-21T15:07:46.594Z,36.00
2018-05-21T15:08:45.961Z,37.25
2018-05-21T15:09:46.025Z,36.38
2018-05-21T15:10:46.025Z,36.67
2018-05-21T15:11:46.051Z,37.45
2018-05-21T15:12:46.090Z,36.77
2018-05-21T15:13:46.127Z,36.87
2018-05-21T15:14:46.152Z,36.00
2018-05-21T15:15:46.184Z,35.61
2018-05-21T15:16:46.219Z,35.52
2018-05-21T15:17:46.376Z,36.09
2018-05-21T15:18:46.382Z,35.90
2018-05-21T15:19:46.296Z,36.00
2018-05-21T15:20:46.344Z,36.77
2018-05-21T15:21:46.360Z,36.09
2018-05-21T15:22:46.408Z,35.80
2018-05-21T15:23:46.444Z,36.77
2018-05-21T15:24:46.459Z,36.87
2018-05-21T15:25:46.485Z,35.90
2018-05-21T15:26:46.529Z,36.09
2018-05-21T15:27:46.560Z,36.38
2018-05-21T15:28:46.585Z,36.67
2018-05-21T15:29:46.605Z,36.48
2018-05-21T15:30:46.635Z,36.29
2018-05-21T15:31:46.669Z,36.57
2018-05-21T15:32:46.716Z,36.77
2018-05-21T15:33:46.722Z,36.38
2018-05-21T15:34:46.748Z,36.87
2018-05-21T15:35:46.828Z,36.67
2018-05-21T15:36:46.809Z,36.09
2018-05-21T15:37:46.846Z,36.09
2018-05-21T15:38:46.879Z,36.00
2018-05-21T15:39:46.910Z,36.48
2018-05-21T15:40:46.951Z,35.90
2018-05-21T15:41:46.966Z,35.80
2018-05-21T15:42:47.006Z,36.29
2018-05-21T15:43:47.042Z,36.09
2018-05-21T15:44:47.072Z,36.29
2018-05-21T15:45:47.082Z,36.77
2018-05-21T15:46:47.130Z,36.29
2018-05-21T15:47:47.145Z,36.67
2018-05-21T15:48:47.177Z,37.06
2018-05-21T15:49:47.205Z,36.87
2018-05-21T15:50:47.237Z,36.00
2018-05-21T15:51:47.270Z,36.96
2018-05-21T15:52:47.296Z,36.67
2018-05-21T15:53:47.336Z,36.38
2018-05-21T15:54:47.357Z,35.90
2018-05-21T15:55:47.394Z,36.48
2018-05-21T15:56:47.427Z,36.67
2018-05-21T15:57:47.479Z,36.29
2018-05-21T15:58:47.486Z,36.09
2018-05-21T15:59:47.558Z,36.00
2018-05-21T16:00:47.539Z,36.00
2018-05-21T16:01:47.567Z,36.09
2018-05-21T16:02:47.598Z,36.19
2018-05-21T16:03:47.642Z,36.09
2018-05-21T16:04:47.672Z,36.29
2018-05-21T16:05:47.692Z,36.00
2018-05-21T16:06:47.736Z,36.57
2018-05-21T16:07:47.764Z,36.09
2018-05-21T16:08:47.785Z,36.09
2018-05-21T16:09:47.819Z,37.35
2018-05-21T16:10:47.838Z,36.09
2018-05-21T16:11:47.870Z,36.48
2018-05-21T16:12:47.928Z,36.67
2018-05-21T16:13:47.937Z,37.25
2018-05-21T16:14:47.969Z,36.67
2018-05-21T16:15:48.008Z,35.90
2018-05-21T16:16:48.125Z,35.90
2018-05-21T16:17:48.105Z,36.87
2018-05-21T16:18:48.151Z,36.77
2018-05-21T16:19:48.113Z,37.25
2018-05-21T16:20:48.146Z,35.80
2018-05-21T16:21:48.186Z,36.00
2018-05-21T16:22:48.205Z,35.90
2018-05-21T16:23:48.238Z,36.00
2018-05-21T16:24:48.272Z,36.19
2018-05-21T16:25:48.319Z,37.06
2018-05-21T16:26:48.336Z,36.96
2018-05-21T16:27:48.496Z,36.96
2018-05-21T16:28:48.394Z,35.61
2018-05-21T16:29:48.418Z,35.90
2018-05-21T16:30:48.447Z,36.96
2018-05-21T16:31:48.473Z,36.00
2018-05-21T16:32:48.517Z,36.29
2018-05-21T16:33:48.547Z,36.87
2018-05-21T16:34:48.574Z,36.38
2018-05-21T16:35:48.598Z,36.48
2018-05-21T16:36:48.718Z,36.77
2018-05-21T16:37:48.668Z,36.09
2018-05-21T16:38:48.700Z,35.61
2018-05-21T16:39:48.741Z,36.38
2018-05-21T16:40:48.750Z,35.90
2018-05-21T16:41:48.800Z,36.67
2018-05-21T16:42:48.815Z,36.87
2018-05-21T16:43:48.848Z,36.38
2018-05-21T16:44:48.880Z,36.09
2018-05-21T16:45:48.897Z,36.09
2018-05-21T16:46:48.935Z,36.09
2018-05-21T16:47:48.994Z,36.29
2018-05-21T16:48:49.001Z,36.96
2018-05-21T16:49:49.021Z,37.15
2018-05-21T16:50:49.057Z,36.67
2018-05-21T16:51:49.088Z,37.06
2018-05-21T16:52:49.113Z,36.77
2018-05-21T16:53:49.160Z,36.38
2018-05-21T16:54:49.210Z,36.67
2018-05-21T16:55:49.202Z,35.90
2018-05-21T16:56:49.257Z,36.19
2018-05-21T16:57:49.269Z,36.67
2018-05-21T16:58:49.289Z,36.67
2018-05-21T16:59:49.331Z,35.90
2018-05-21T17:00:49.359Z,36.29
2018-05-21T17:01:49.404Z,37.06
2018-05-21T17:02:49.417Z,35.61
2018-05-21T17:03:49.451Z,36.00
2018-05-21T17:04:49.591Z,35.90
2018-05-21T17:05:49.518Z,36.00
2018-05-21T17:06:49.554Z,35.88
2018-05-21T17:07:49.558Z,35.88
2018-05-21T17:08:49.594Z,35.78
2018-05-21T17:09:49.630Z,35.40
2018-05-21T17:10:49.655Z,35.40
2018-05-21T17:11:49.678Z,35.59
2018-05-21T17:12:49.744Z,35.61
2018-05-21T17:13:49.762Z,35.88
2018-05-21T17:14:49.778Z,35.50
2018-05-21T17:15:49.808Z,35.59
2018-05-21T17:16:49.848Z,36.17
2018-05-21T17:17:49.894Z,35.98
2018-05-21T17:18:49.895Z,35.98
2018-05-21T17:19:49.922Z,35.59
2018-05-21T17:20:49.961Z,35.40
2018-05-21T17:21:49.986Z,35.42
2018-05-21T17:22:50.022Z,35.88
2018-05-21T17:23:50.048Z,34.72
2018-05-21T17:24:50.104Z,34.72
2018-05-21T17:25:50.879Z,35.30
2018-05-21T17:26:50.147Z,35.21
2018-05-21T17:27:50.181Z,35.30
2018-05-21T17:28:50.198Z,34.44
2018-05-21T17:29:50.225Z,34.05
2018-05-21T17:30:50.277Z,35.40
2018-05-21T17:31:50.288Z,35.40
2018-05-21T17:32:50.324Z,35.50
2018-05-21T17:33:50.352Z,35.30
2018-05-21T17:34:50.372Z,35.59
2018-05-21T17:35:50.535Z,35.78
2018-05-21T17:36:50.459Z,35.50
2018-05-21T17:37:50.474Z,35.78
2018-05-21T17:38:50.582Z,35.69
2018-05-21T17:39:50.672Z,35.69
2018-05-21T17:40:50.566Z,35.78
2018-05-21T17:41:50.609Z,35.69
2018-05-21T17:42:50.638Z,35.69
2018-05-21T17:43:50.643Z,36.07
2018-05-21T17:44:50.686Z,35.88
2018-05-21T17:45:50.706Z,36.36
2018-05-21T17:46:50.777Z,36.46
2018-05-21T17:47:50.785Z,36.94
2018-05-21T17:48:50.823Z,36.75
2018-05-21T17:49:50.835Z,36.17
2018-05-21T17:50:50.910Z,37.23
2018-05-21T17:51:50.984Z,36.75
2018-05-21T17:52:50.918Z,36.36
2018-05-21T17:53:50.964Z,36.17
2018-05-21T17:54:50.974Z,36.17
2018-05-21T17:55:51.025Z,36.17
2018-05-21T17:56:51.049Z,36.85
2018-05-21T17:57:51.145Z,36.46
2018-05-21T17:58:51.097Z,36.65
2018-05-21T17:59:51.142Z,37.04
2018-05-21T18:00:51.163Z,36.75
2018-05-21T18:01:51.182Z,35.88
2018-05-21T18:02:51.221Z,36.07
2018-05-21T18:03:51.327Z,36.83
2018-05-21T18:04:51.284Z,37.04
2018-05-21T18:05:51.328Z,36.17
2018-05-21T18:06:51.344Z,36.07
2018-05-21T18:07:51.429Z,36.44
2018-05-21T18:08:51.519Z,36.94
2018-05-21T18:09:51.438Z,36.54
2018-05-21T18:10:51.541Z,36.55
2018-05-21T18:11:51.499Z,36.17
2018-05-21T18:13:51.540Z,36.54
2018-05-21T18:14:51.645Z,36.35
2018-05-21T18:15:51.631Z,36.85
2018-05-21T18:16:51.642Z,36.25
2018-05-21T18:17:51.745Z,36.35
2018-05-21T18:18:51.731Z,36.93
2018-05-21T18:19:51.732Z,36.93
2018-05-21T18:20:51.783Z,36.73
2018-05-21T18:21:51.804Z,36.63
2018-05-21T18:22:51.833Z,37.02
2018-05-21T18:23:51.851Z,36.63
2018-05-21T18:24:52.012Z,37.21
2018-05-21T18:25:51.900Z,36.93
2018-05-21T18:26:51.934Z,36.83
2018-05-21T18:28:52.079Z,37.31
2018-05-21T18:29:52.043Z,37.79
2018-05-21T18:30:52.063Z,37.12
2018-05-21T18:31:52.155Z,37.31
2018-05-21T18:32:52.133Z,37.12
2018-05-21T18:33:52.169Z,37.21
2018-05-21T18:34:52.186Z,37.41
2018-05-21T18:35:52.321Z,36.83
2018-05-21T18:36:52.249Z,37.12
2018-05-21T18:37:52.294Z,37.50
2018-05-21T18:38:52.354Z,37.31
2018-05-21T18:39:52.342Z,37.79
2018-05-21T18:40:52.368Z,37.60
2018-05-21T18:41:52.449Z,37.21
2018-05-21T18:42:52.565Z,37.60
2018-05-21T18:43:52.471Z,38.18
2018-05-21T18:44:52.658Z,38.95
2018-05-21T18:45:52.634Z,38.85
2018-05-21T18:46:52.692Z,38.18
2018-05-21T18:47:52.671Z,38.28
2018-05-21T18:48:53.091Z,38.08
2018-05-21T18:49:52.660Z,37.98
2018-05-21T18:50:52.720Z,38.85
2018-05-21T18:51:52.940Z,38.64
2018-05-21T18:52:52.756Z,39.22
2018-05-21T18:54:52.863Z,38.45
2018-05-21T18:55:52.850Z,38.93
2018-05-21T18:56:52.873Z,38.83
2018-05-21T18:57:52.874Z,38.93
2018-05-21T18:58:52.966Z,39.79
2018-05-21T18:59:52.965Z,39.70
2018-05-21T19:00:52.991Z,39.89
2018-05-21T19:01:53.043Z,39.61
2018-05-21T19:02:53.087Z,39.22
2018-05-21T19:03:53.072Z,39.51
2018-05-21T19:05:53.227Z,39.89
2018-05-21T19:06:53.998Z,39.41
2018-05-21T19:07:53.268Z,39.61
2018-05-21T19:08:53.333Z,39.31
2018-05-21T19:09:53.297Z,39.70
2018-05-21T19:10:53.410Z,39.79
2018-05-21T19:12:14.453Z,40.09
2018-05-21T19:12:53.417Z,40.28
2018-05-21T19:13:53.483Z,40.95
2018-05-21T19:14:53.518Z,40.57
2018-05-21T19:15:53.628Z,40.16
2018-05-21T19:16:53.529Z,39.89
2018-05-21T19:18:14.623Z,39.87
2018-05-21T19:18:53.673Z,39.89
2018-05-21T19:19:53.631Z,41.03
2018-05-21T19:20:53.741Z,40.36
2018-05-21T19:21:53.719Z,40.94
2018-05-21T19:22:53.755Z,41.51
2018-05-21T19:24:14.841Z,40.76
2018-05-21T19:24:53.801Z,40.94
2018-05-21T19:25:53.826Z,40.55
2018-05-21T19:26:53.855Z,40.26
2018-05-21T19:27:53.854Z,40.94
2018-05-21T19:28:53.854Z,40.74
2018-05-21T19:30:14.935Z,40.74
2018-05-21T19:30:53.957Z,41.22
2018-05-21T19:31:53.971Z,41.03
2018-05-21T19:32:54.036Z,40.84
2018-05-21T19:33:54.043Z,41.32
2018-05-21T19:34:54.151Z,41.51
2018-05-21T19:36:15.149Z,41.61
2018-05-21T19:36:54.219Z,42.09
2018-05-21T19:37:54.245Z,42.19
2018-05-21T19:38:54.255Z,42.19
2018-05-21T19:39:54.247Z,41.03
2018-05-21T19:40:54.249Z,41.89
2018-05-21T19:42:15.380Z,42.19
2018-05-21T19:42:54.293Z,40.74
2018-05-21T19:43:54.326Z,41.59
2018-05-21T19:44:54.373Z,41.99
2018-05-21T19:45:54.445Z,41.89
2018-05-21T19:46:54.427Z,42.47
2018-05-21T19:48:15.477Z,42.57
2018-05-21T19:48:54.486Z,41.89
2018-05-21T19:49:54.547Z,42.47
2018-05-21T19:50:54.568Z,42.47
2018-05-21T19:51:54.629Z,42.57
2018-05-21T19:52:55.411Z,43.34
2018-05-21T19:54:15.677Z,43.44
2018-05-21T19:54:54.709Z,41.88
2018-05-21T19:55:54.767Z,42.47
2018-05-21T19:56:54.750Z,42.36
2018-05-21T19:57:54.747Z,42.16
2018-05-21T19:58:54.804Z,42.74
2018-05-21T20:00:15.916Z,42.93
2018-05-21T20:00:54.843Z,42.46
2018-05-21T20:01:54.873Z,42.65
2018-05-21T20:02:54.912Z,43.13
2018-05-21T20:03:55.006Z,43.99
2018-05-21T20:04:54.988Z,43.32
2018-05-21T20:06:16.031Z,43.90
2018-05-21T20:06:55.030Z,43.90
2018-05-21T20:07:55.074Z,43.99
2018-05-21T20:08:55.101Z,43.71
2018-05-21T20:09:55.179Z,43.51
2018-05-21T20:10:55.198Z,43.41
2018-05-21T20:12:16.271Z,44.67
2018-05-21T20:12:55.241Z,43.41
2018-05-21T20:13:55.304Z,44.48
2018-05-21T20:14:55.263Z,43.71
2018-05-21T20:15:55.389Z,43.80
2018-05-21T20:16:55.412Z,43.80
2018-05-21T20:18:16.365Z,44.17
2018-05-21T20:18:55.373Z,44.19
2018-05-21T20:19:55.413Z,44.28
2018-05-21T20:20:55.428Z,45.25
2018-05-21T20:21:55.457Z,44.48
2018-05-21T20:22:55.497Z,45.34
2018-05-21T20:24:16.595Z,44.84
2018-05-21T20:24:55.527Z,44.65
2018-05-21T20:25:55.571Z,44.17
2018-05-21T20:26:55.594Z,43.88
2018-05-21T20:27:55.666Z,45.03
2018-05-21T20:28:55.720Z,45.32
2018-05-21T20:30:16.716Z,45.13
2018-05-21T20:30:55.782Z,44.55
2018-05-21T20:31:55.779Z,45.22
2018-05-21T20:32:55.779Z,45.13
2018-05-21T20:33:55.800Z,45.13
2018-05-21T20:34:55.824Z,46.09
2018-05-21T20:36:16.859Z,45.42
2018-05-21T20:36:55.920Z,44.07
2018-05-21T20:37:55.899Z,44.07
2018-05-21T20:38:55.936Z,45.32
2018-05-21T20:39:55.959Z,45.22
2018-05-21T20:40:55.975Z,44.84
2018-05-21T20:42:17.053Z,45.13
2018-05-21T20:42:56.057Z,45.42
2018-05-21T20:43:56.106Z,46.28
2018-05-21T20:44:56.090Z,45.90
2018-05-21T20:45:56.133Z,46.57
2018-05-21T20:46:56.165Z,46.19
2018-05-21T20:48:17.214Z,45.70
2018-05-21T20:48:56.242Z,45.51
2018-05-21T20:49:56.244Z,46.09
2018-05-21T20:50:56.280Z,46.06
2018-05-21T20:51:56.328Z,46.64
2018-05-21T20:52:56.326Z,46.67
2018-05-21T20:54:17.432Z,46.57
2018-05-21T20:54:56.483Z,45.61
2018-05-21T20:55:56.443Z,46.38
2018-05-21T20:56:56.490Z,46.55
2018-05-21T20:57:56.479Z,45.90
2018-05-21T20:58:56.518Z,47.05
2018-05-21T21:00:17.578Z,46.64
2018-05-21T21:00:56.578Z,46.16
2018-05-21T21:01:56.620Z,46.55
2018-05-21T21:02:56.676Z,46.36
2018-05-21T21:03:56.648Z,46.55
2018-05-21T21:04:56.689Z,47.13
2018-05-21T21:06:17.751Z,46.55
2018-05-21T21:06:56.750Z,47.03
2018-05-21T21:07:56.817Z,46.55
2018-05-21T21:08:56.830Z,46.36
2018-05-21T21:09:56.857Z,47.41
2018-05-21T21:10:56.894Z,46.55
2018-05-21T21:12:17.927Z,46.55
2018-05-21T21:12:56.914Z,46.55
2018-05-21T21:13:56.936Z,46.36
2018-05-21T21:14:56.998Z,46.64
2018-05-21T21:15:57.102Z,47.80
2018-05-21T21:16:57.053Z,47.22
2018-05-21T21:18:18.144Z,47.22
2018-05-21T21:18:57.104Z,47.41
2018-05-21T21:19:57.202Z,46.55
2018-05-21T21:20:57.160Z,46.36
2018-05-21T21:21:57.237Z,45.97
2018-05-21T21:22:57.221Z,46.74
2018-05-21T21:24:18.273Z,47.03
2018-05-21T21:24:57.279Z,46.06
2018-05-21T21:25:57.283Z,46.64
2018-05-21T21:26:57.372Z,46.74
2018-05-21T21:27:57.366Z,47.31
2018-05-21T21:28:57.380Z,46.45
2018-05-21T21:30:18.414Z,46.55
2018-05-21T21:30:57.441Z,46.81
2018-05-21T21:31:57.547Z,46.93
2018-05-21T21:32:57.567Z,46.14
2018-05-21T21:33:57.572Z,47.31
2018-05-21T21:34:57.549Z,47.51
2018-05-21T21:36:19.410Z,47.30
2018-05-21T21:36:57.684Z,47.87
2018-05-21T21:37:57.654Z,47.58
2018-05-21T21:38:57.718Z,46.43
2018-05-21T21:39:57.729Z,46.91
2018-05-21T21:40:57.730Z,47.30
2018-05-21T21:42:18.810Z,47.30
2018-05-21T21:42:57.803Z,46.72
2018-05-21T21:43:57.815Z,47.49
2018-05-21T21:44:57.894Z,47.87
2018-05-21T21:45:57.928Z,48.07
2018-05-21T21:46:57.954Z,47.97
2018-05-21T21:48:18.960Z,47.58
2018-05-21T21:48:58.021Z,47.77
2018-05-21T21:49:57.997Z,47.39
2018-05-21T21:50:58.008Z,47.97
2018-05-21T21:51:58.070Z,47.77
2018-05-21T21:52:58.079Z,47.49
2018-05-21T21:54:19.152Z,48.64
2018-05-21T21:54:58.124Z,47.77
2018-05-21T21:55:58.218Z,48.07
2018-05-21T21:56:58.286Z,48.45
2018-05-21T21:57:58.235Z,47.87
2018-05-21T21:58:58.327Z,48.35
2018-05-21T22:00:19.332Z,48.35
2018-05-21T22:00:58.309Z,48.83
2018-05-21T22:01:58.347Z,49.31
2018-05-21T22:02:58.386Z,49.02
2018-05-21T22:03:58.397Z,48.45
2018-05-21T22:04:58.454Z,49.22
2018-05-21T22:06:19.472Z,48.35
2018-05-21T22:06:58.485Z,48.64
2018-05-21T22:07:58.567Z,49.69
2018-05-21T22:08:58.537Z,48.64
2018-05-21T22:09:58.576Z,48.74
2018-05-21T22:10:58.596Z,49.41
2018-05-21T22:12:19.646Z,49.12
2018-05-21T22:12:58.668Z,49.31
2018-05-21T22:13:58.675Z,50.08
2018-05-21T22:14:58.752Z,50.08
2018-05-21T22:15:58.742Z,48.71
2018-05-21T22:16:58.765Z,49.69
2018-05-21T22:18:19.834Z,50.08
2018-05-21T22:18:58.846Z,49.77
2018-05-21T22:19:59.081Z,49.51
2018-05-21T22:20:58.914Z,48.61
2018-05-21T22:21:58.918Z,48.71
2018-05-21T22:22:59.026Z,49.77
2018-05-21T22:24:20.033Z,49.77
2018-05-21T22:24:59.021Z,49.67
2018-05-21T22:25:59.041Z,51.59
2018-05-21T22:26:59.106Z,53.52
2018-05-21T22:27:59.107Z,53.61
2018-05-21T22:28:59.192Z,54.47
2018-05-21T22:30:20.166Z,55.53
2018-05-21T22:30:59.191Z,56.30
2018-05-21T22:31:59.216Z,57.75
2018-05-21T22:32:59.250Z,56.40
2018-05-21T22:33:59.268Z,56.88
2018-05-21T22:34:59.305Z,55.15
2018-05-21T22:36:20.334Z,55.15
2018-05-21T22:36:59.371Z,53.42
2018-05-21T22:37:59.397Z,54.67
2018-05-21T22:38:59.446Z,55.44
2018-05-21T22:39:59.444Z,55.63
2018-05-21T22:40:59.461Z,54.25
2018-05-21T22:42:20.505Z,55.60
2018-05-21T22:42:59.520Z,54.35
2018-05-21T22:43:59.561Z,55.41
2018-05-21T22:45:00.431Z,55.89
2018-05-21T22:45:59.634Z,56.56
2018-05-21T22:46:59.651Z,57.11
2018-05-21T22:48:20.680Z,55.77
2018-05-21T22:48:59.713Z,54.45
2018-05-21T22:49:59.724Z,55.22
2018-05-21T22:50:59.816Z,55.51
2018-05-21T22:51:59.798Z,55.77
2018-05-21T22:52:59.820Z,56.46
2018-05-21T22:54:20.848Z,55.69
2018-05-21T22:54:59.874Z,57.33
2018-05-21T22:55:59.900Z,57.04
2018-05-21T22:56:59.977Z,55.77
2018-05-21T22:57:59.951Z,56.53
2018-05-21T22:59:00.111Z,56.85
2018-05-21T23:00:21.029Z,55.47
2018-05-21T23:01:00.066Z,55.89
2018-05-21T23:02:00.063Z,56.37
2018-05-21T23:03:00.108Z,55.02
2018-05-21T23:04:00.130Z,55.96
2018-05-21T23:05:00.164Z,56.95
2018-05-21T23:06:21.208Z,55.12
2018-05-21T23:07:00.233Z,55.79
2018-05-21T23:08:00.256Z,55.77
2018-05-21T23:09:00.273Z,56.53
2018-05-21T23:10:00.375Z,56.92
2018-05-21T23:11:00.316Z,56.27
2018-05-21T23:12:21.458Z,56.08
2018-05-21T23:13:00.367Z,55.89
2018-05-21T23:14:00.401Z,55.41
2018-05-21T23:15:00.454Z,55.57
2018-05-21T23:16:00.459Z,56.27
2018-05-21T23:17:00.691Z,55.69
2018-05-21T23:18:21.564Z,55.79
2018-05-21T23:19:01.117Z,56.85
2018-05-21T23:20:00.576Z,57.43
2018-05-21T23:22:25.383Z,54.42
2018-05-21T23:23:25.363Z,57.11
2018-05-21T23:24:46.413Z,57.81
2018-05-21T23:25:25.447Z,57.71
2018-05-21T23:26:25.451Z,58.20
2018-05-21T23:27:25.550Z,57.04
2018-05-21T23:28:25.518Z,57.78
2018-05-21T23:29:25.591Z,56.92
2018-05-21T23:30:46.612Z,56.92
2018-05-21T23:31:25.608Z,58.20
2018-05-21T23:32:25.633Z,57.68
2018-05-21T23:33:25.656Z,57.11